createdAt,value
2023-04-18T00:00:14.094Z,32.01
2023-04-18T00:01:14.106Z,32.03
2023-04-18T00:02:14.203Z,32.08
2023-04-18T00:03:14.339Z,32.06
2023-04-18T00:04:14.551Z,32.02
2023-04-18T00:05:14.302Z,31.95
2023-04-18T00:06:14.289Z,31.93
2023-04-18T00:07:14.298Z,31.99
2023-04-18T00:08:14.364Z,31.97
2023-04-18T00:09:14.428Z,31.97
2023-04-18T00:10:14.444Z,31.92
2023-04-18T00:11:14.509Z,31.96
2023-04-18T00:12:14.507Z,31.95
2023-04-18T00:13:14.532Z,31.96
2023-04-18T00:14:14.802Z,31.95
2023-04-18T00:15:14.596Z,31.93
2023-04-18T00:16:14.745Z,31.94
2023-04-18T00:17:14.744Z,31.93
2023-04-18T00:18:14.734Z,32.04
2023-04-18T00:19:14.768Z,31.96
2023-04-18T00:20:14.841Z,31.99
2023-04-18T00:21:14.885Z,31.99
2023-04-18T00:22:14.875Z,31.94
2023-04-18T00:23:14.945Z,31.96
2023-04-18T00:24:15.055Z,31.94
2023-04-18T00:25:15.017Z,32.01
2023-04-18T00:26:15.052Z,32.05
2023-04-18T00:27:15.063Z,32.08
2023-04-18T00:28:15.167Z,32.05
2023-04-18T00:29:15.168Z,32.05
2023-04-18T00:30:15.319Z,32.04
2023-04-18T00:31:15.311Z,32.10
2023-04-18T00:32:15.339Z,32.05
2023-04-18T00:33:15.364Z,32.06
2023-04-18T00:34:15.528Z,32.09
2023-04-18T00:35:15.449Z,32.06
2023-04-18T00:36:15.495Z,32.16
2023-04-18T00:37:15.553Z,32.13
2023-04-18T00:38:15.593Z,32.13
2023-04-18T00:39:15.647Z,32.16
2023-04-18T00:40:15.700Z,32.17
2023-04-18T00:41:15.770Z,32.16
2023-04-18T00:42:15.777Z,32.20
2023-04-18T00:43:15.853Z,32.13
2023-04-18T00:44:16.037Z,32.12
2023-04-18T00:45:15.959Z,32.13
2023-04-18T00:46:16.037Z,32.12
2023-04-18T00:47:16.073Z,32.16
2023-04-18T00:48:16.110Z,32.15
2023-04-18T00:49:16.150Z,32.15
2023-04-18T00:50:16.228Z,32.14
2023-04-18T00:51:16.276Z,32.14
2023-04-18T00:52:16.282Z,32.16
2023-04-18T00:53:16.356Z,32.17
2023-04-18T00:54:16.475Z,32.14
2023-04-18T00:55:16.487Z,32.13
2023-04-18T00:56:16.495Z,32.13
2023-04-18T00:57:16.559Z,32.17
2023-04-18T00:58:16.618Z,32.17
2023-04-18T00:59:16.670Z,32.16
2023-04-18T01:00:16.706Z,32.17
2023-04-18T01:01:16.795Z,32.16
2023-04-18T01:02:16.954Z,32.16
2023-04-18T01:03:16.937Z,32.17
2023-04-18T01:04:17.337Z,32.14
2023-04-18T01:05:16.956Z,32.16
2023-04-18T01:06:17.006Z,32.13
2023-04-18T01:07:17.097Z,32.10
2023-04-18T01:08:17.133Z,32.14
2023-04-18T01:09:17.222Z,32.16
2023-04-18T01:10:17.257Z,32.12
2023-04-18T01:11:17.301Z,32.12
2023-04-18T01:12:17.356Z,32.16
2023-04-18T01:13:17.403Z,32.16
2023-04-18T01:14:17.471Z,32.07
2023-04-18T01:15:17.489Z,32.07
2023-04-18T01:16:17.663Z,32.10
2023-04-18T01:17:17.606Z,32.07
2023-04-18T01:18:17.652Z,32.05
2023-04-18T01:19:17.735Z,32.04
2023-04-18T01:20:17.816Z,32.09
2023-04-18T01:21:17.857Z,32.01
2023-04-18T01:22:17.880Z,32.07
2023-04-18T01:23:17.912Z,32.07
2023-04-18T01:24:18.011Z,32.07
2023-04-18T01:25:18.022Z,32.11
2023-04-18T01:26:18.077Z,32.08
2023-04-18T01:27:18.162Z,32.07
2023-04-18T01:28:18.224Z,32.07
2023-04-18T01:29:18.259Z,32.03
2023-04-18T01:30:18.319Z,32.05
2023-04-18T01:31:18.418Z,32.03
2023-04-18T01:32:18.425Z,31.98
2023-04-18T01:33:18.522Z,31.99
2023-04-18T01:34:18.548Z,31.98
2023-04-18T01:35:18.603Z,31.98
2023-04-18T01:36:18.653Z,31.97
2023-04-18T01:37:18.727Z,31.98
2023-04-18T01:38:18.783Z,31.94
2023-04-18T01:39:18.880Z,31.91
2023-04-18T01:40:18.883Z,31.89
2023-04-18T01:41:18.961Z,31.88
2023-04-18T01:42:19.002Z,31.88
2023-04-18T01:43:19.084Z,31.87
2023-04-18T01:44:19.168Z,31.82
2023-04-18T01:45:19.187Z,31.84
2023-04-18T01:46:19.325Z,31.78
2023-04-18T01:47:19.349Z,31.81
2023-04-18T01:48:19.352Z,31.75
2023-04-18T01:49:19.459Z,31.79
2023-04-18T01:50:19.492Z,31.75
2023-04-18T01:51:19.545Z,31.77
2023-04-18T01:52:19.641Z,31.73
2023-04-18T01:53:19.667Z,31.70
2023-04-18T01:54:19.844Z,31.67
2023-04-18T01:55:19.802Z,31.60
2023-04-18T01:56:19.848Z,31.58
2023-04-18T01:57:19.912Z,31.59
2023-04-18T01:58:19.951Z,31.65
2023-04-18T01:59:20.028Z,31.62
2023-04-18T02:00:20.055Z,31.62
2023-04-18T02:01:20.233Z,31.62
2023-04-18T02:02:20.292Z,31.65
2023-04-18T02:03:20.437Z,31.58
2023-04-18T02:04:20.359Z,31.62
2023-04-18T02:05:20.402Z,31.65
2023-04-18T02:06:20.505Z,31.69
2023-04-18T02:07:20.457Z,31.72
2023-04-18T02:08:20.556Z,31.66
2023-04-18T02:09:20.626Z,31.67
2023-04-18T02:10:20.678Z,31.63
2023-04-18T02:11:20.765Z,31.60
2023-04-18T02:12:20.823Z,31.60
2023-04-18T02:13:20.869Z,31.61
2023-04-18T02:14:20.952Z,31.61
2023-04-18T02:15:21.011Z,31.57
2023-04-18T02:16:21.118Z,31.53
2023-04-18T02:17:21.184Z,31.50
2023-04-18T02:18:21.219Z,31.53
2023-04-18T02:19:21.307Z,31.41
2023-04-18T02:20:21.336Z,31.50
2023-04-18T02:21:21.366Z,31.47
2023-04-18T02:22:21.457Z,31.47
2023-04-18T02:23:21.553Z,31.39
2023-04-18T02:24:21.615Z,31.35
2023-04-18T02:25:21.673Z,31.33
2023-04-18T02:26:21.704Z,31.30
2023-04-18T02:27:21.799Z,31.34
2023-04-18T02:28:21.828Z,31.29
2023-04-18T02:29:21.883Z,31.30
2023-04-18T02:30:21.968Z,31.28
2023-04-18T02:31:22.060Z,31.24
2023-04-18T02:32:22.093Z,31.28
2023-04-18T02:33:22.154Z,31.21
2023-04-18T02:34:22.228Z,31.28
2023-04-18T02:35:22.262Z,31.21
2023-04-18T02:36:22.309Z,31.24
2023-04-18T02:37:22.370Z,31.24
2023-04-18T02:38:22.454Z,31.17
2023-04-18T02:39:22.482Z,31.18
2023-04-18T02:40:22.627Z,31.17
2023-04-18T02:41:22.666Z,31.11
2023-04-18T02:42:22.710Z,31.12
2023-04-18T02:43:22.773Z,31.09
2023-04-18T02:44:22.810Z,31.11
2023-04-18T02:45:22.908Z,31.11
2023-04-18T02:46:23.055Z,31.08
2023-04-18T02:47:23.021Z,31.09
2023-04-18T02:48:23.065Z,31.11
2023-04-18T02:49:23.133Z,31.09
2023-04-18T02:50:23.146Z,31.14
2023-04-18T02:51:23.200Z,31.13
2023-04-18T02:52:23.300Z,31.13
2023-04-18T02:53:23.291Z,31.11
2023-04-18T02:54:23.356Z,31.16
2023-04-18T02:55:23.430Z,31.15
2023-04-18T02:56:23.500Z,31.10
2023-04-18T02:57:23.563Z,31.16
2023-04-18T02:58:23.612Z,31.18
2023-04-18T02:59:23.684Z,31.22
2023-04-18T03:00:23.728Z,31.13
2023-04-18T03:01:23.751Z,31.19
2023-04-18T03:02:23.876Z,31.17
2023-04-18T03:03:23.932Z,31.13
2023-04-18T03:04:23.928Z,31.10
2023-04-18T03:05:23.920Z,31.13
2023-04-18T03:06:24.007Z,31.04
2023-04-18T03:07:24.038Z,31.06
2023-04-18T03:08:24.047Z,31.06
2023-04-18T03:09:24.097Z,31.05
2023-04-18T03:10:24.155Z,31.10
2023-04-18T03:11:24.161Z,31.10
2023-04-18T03:12:24.197Z,31.11
2023-04-18T03:13:24.233Z,31.10
2023-04-18T03:14:24.261Z,31.02
2023-04-18T03:15:24.277Z,31.07
2023-04-18T03:16:24.315Z,31.07
2023-04-18T03:17:24.308Z,31.07
2023-04-18T03:18:24.349Z,31.04
2023-04-18T03:19:24.298Z,31.10
2023-04-18T03:20:24.404Z,31.08
2023-04-18T03:21:24.357Z,31.10
2023-04-18T03:22:24.338Z,31.05
2023-04-18T03:23:24.397Z,31.07
2023-04-18T03:24:24.448Z,31.04
2023-04-18T03:25:24.400Z,31.02
2023-04-18T03:26:24.447Z,31.05
2023-04-18T03:27:24.474Z,31.07
2023-04-18T03:28:24.464Z,31.04
2023-04-18T03:29:24.448Z,31.07
2023-04-18T03:30:24.421Z,31.07
2023-04-18T03:31:24.467Z,31.05
2023-04-18T03:32:24.463Z,31.04
2023-04-18T03:33:24.401Z,31.07
2023-04-18T03:34:24.408Z,31.02
2023-04-18T03:35:24.412Z,31.00
2023-04-18T03:36:24.408Z,30.95
2023-04-18T03:37:24.392Z,31.00
2023-04-18T03:38:24.428Z,30.95
2023-04-18T03:39:24.396Z,31.01
2023-04-18T03:40:24.434Z,31.02
2023-04-18T03:41:24.426Z,30.98
2023-04-18T03:42:24.422Z,30.94
2023-04-18T03:43:24.403Z,30.94
2023-04-18T03:44:24.474Z,30.96
2023-04-18T03:45:24.421Z,30.98
2023-04-18T03:46:24.484Z,31.01
2023-04-18T03:47:24.414Z,30.98
2023-04-18T03:48:24.388Z,31.05
2023-04-18T03:49:24.366Z,31.07
2023-04-18T03:50:24.475Z,30.99
2023-04-18T03:51:24.408Z,30.99
2023-04-18T03:52:24.386Z,30.98
2023-04-18T03:53:24.368Z,30.97
2023-04-18T03:54:24.376Z,30.94
2023-04-18T03:55:24.356Z,30.95
2023-04-18T03:56:24.385Z,30.96
2023-04-18T03:57:24.357Z,30.95
2023-04-18T03:58:24.365Z,31.00
2023-04-18T03:59:24.362Z,30.95
2023-04-18T04:00:24.352Z,30.96
2023-04-18T04:01:24.341Z,30.95
2023-04-18T04:02:24.515Z,31.01
2023-04-18T04:03:24.476Z,30.92
2023-04-18T04:05:24.389Z,31.00
2023-04-18T04:06:24.341Z,30.95
2023-04-18T04:07:24.322Z,30.96
2023-04-18T04:08:25.098Z,30.92
2023-04-18T04:09:24.332Z,30.96
2023-04-18T04:10:24.374Z,30.93
2023-04-18T04:11:24.336Z,30.92
2023-04-18T04:12:24.330Z,30.90
2023-04-18T04:13:24.293Z,30.96
2023-04-18T04:14:24.298Z,30.85
2023-04-18T04:15:24.401Z,30.88
2023-04-18T04:16:24.320Z,30.92
2023-04-18T04:17:24.425Z,30.93
2023-04-18T04:18:24.337Z,30.93
2023-04-18T04:19:24.296Z,30.94
2023-04-18T04:20:24.376Z,30.91
2023-04-18T04:21:24.309Z,30.97
2023-04-18T04:22:24.316Z,30.90
2023-04-18T04:23:24.311Z,30.96
2023-04-18T04:24:24.315Z,30.96
2023-04-18T04:25:24.354Z,30.91
2023-04-18T04:26:24.307Z,30.96
2023-04-18T04:27:24.351Z,30.96
2023-04-18T04:28:24.311Z,30.90
2023-04-18T04:29:24.324Z,30.90
2023-04-18T04:30:24.335Z,30.84
2023-04-18T04:31:24.361Z,30.93
2023-04-18T04:32:24.358Z,30.81
2023-04-18T04:33:24.340Z,30.85
2023-04-18T04:34:24.330Z,30.85
2023-04-18T04:35:24.319Z,30.94
2023-04-18T04:36:24.344Z,30.88
2023-04-18T04:37:24.393Z,30.93
2023-04-18T04:38:24.356Z,30.90
2023-04-18T04:39:24.382Z,30.93
2023-04-18T04:40:24.390Z,30.90
2023-04-18T04:41:24.372Z,30.85
2023-04-18T04:42:24.368Z,30.85
2023-04-18T04:43:24.370Z,30.90
2023-04-18T04:44:24.429Z,30.84
2023-04-18T04:45:24.533Z,30.88
2023-04-18T04:46:24.455Z,30.93
2023-04-18T04:47:24.458Z,30.91
2023-04-18T04:48:24.423Z,30.91
2023-04-18T04:49:24.435Z,31.16
2023-04-18T04:50:24.435Z,31.29
2023-04-18T04:51:24.435Z,31.59
2023-04-18T04:52:24.464Z,31.65
2023-04-18T04:53:24.415Z,32.18
2023-04-18T04:54:24.416Z,32.17
2023-04-18T04:55:24.444Z,32.21
2023-04-18T04:56:24.405Z,32.03
2023-04-18T04:57:24.386Z,32.36
2023-04-18T04:58:24.407Z,32.42
2023-04-18T04:59:24.390Z,32.87
2023-04-18T05:00:24.410Z,32.87
2023-04-18T05:01:24.483Z,32.91
2023-04-18T05:02:24.563Z,32.89
2023-04-18T05:03:24.513Z,32.83
2023-04-18T05:04:24.606Z,32.93
2023-04-18T05:05:24.522Z,32.99
2023-04-18T05:06:24.436Z,33.13
2023-04-18T05:07:24.452Z,33.17
2023-04-18T05:08:24.471Z,33.23
2023-04-18T05:09:24.469Z,33.37
2023-04-18T05:10:24.493Z,33.32
2023-04-18T05:11:24.501Z,33.60
2023-04-18T05:12:24.522Z,33.44
2023-04-18T05:13:24.548Z,33.86
2023-04-18T05:14:24.548Z,33.63
2023-04-18T05:15:24.589Z,33.69
2023-04-18T05:16:24.614Z,33.84
2023-04-18T05:17:24.643Z,33.87
2023-04-18T05:18:24.585Z,33.87
2023-04-18T05:19:24.584Z,33.89
2023-04-18T05:20:24.618Z,33.91
2023-04-18T05:21:24.648Z,33.84
2023-04-18T05:22:24.665Z,34.02
2023-04-18T05:23:24.681Z,34.14
2023-04-18T05:24:24.741Z,34.17
2023-04-18T05:25:24.778Z,34.35
2023-04-18T05:26:24.829Z,34.21
2023-04-18T05:27:25.843Z,34.36
2023-04-18T05:28:24.880Z,34.22
2023-04-18T05:29:24.915Z,34.31
2023-04-18T05:30:25.323Z,34.50
2023-04-18T05:31:25.042Z,34.51
2023-04-18T05:32:25.011Z,34.56
2023-04-18T05:33:25.075Z,34.66
2023-04-18T05:34:25.105Z,34.69
2023-04-18T05:35:25.179Z,34.65
2023-04-18T05:36:25.195Z,34.75
2023-04-18T05:37:25.270Z,34.77
2023-04-18T05:38:25.296Z,35.05
2023-04-18T05:39:25.364Z,35.39
2023-04-18T05:40:25.825Z,35.48
2023-04-18T05:41:25.496Z,35.95
2023-04-18T05:42:25.535Z,35.88
2023-04-18T05:43:25.625Z,36.09
2023-04-18T05:44:25.728Z,36.63
2023-04-18T05:45:25.712Z,37.37
2023-04-18T05:46:25.828Z,36.82
2023-04-18T05:47:25.860Z,36.90
2023-04-18T05:48:25.895Z,37.53
2023-04-18T05:49:25.894Z,37.87
2023-04-18T05:50:25.946Z,37.66
2023-04-18T05:51:25.942Z,37.72
2023-04-18T05:52:25.993Z,37.96
2023-04-18T05:53:26.012Z,37.71
2023-04-18T05:54:26.042Z,38.33
2023-04-18T05:55:26.070Z,37.95
2023-04-18T05:56:26.114Z,38.08
2023-04-18T05:57:26.146Z,38.33
2023-04-18T05:58:26.165Z,37.96
2023-04-18T05:59:26.188Z,38.06
2023-04-18T06:00:26.226Z,38.08
2023-04-18T06:01:26.224Z,38.03
2023-04-18T06:02:26.407Z,37.87
2023-04-18T06:03:26.505Z,37.86
2023-04-18T06:04:26.381Z,37.69
2023-04-18T06:05:26.491Z,37.85
2023-04-18T06:06:26.374Z,37.85
2023-04-18T06:07:26.404Z,37.68
2023-04-18T06:08:26.448Z,37.62
2023-04-18T06:09:26.461Z,37.50
2023-04-18T06:10:26.515Z,37.49
2023-04-18T06:11:26.549Z,37.47
2023-04-18T06:12:26.586Z,37.32
2023-04-18T06:13:26.640Z,37.39
2023-04-18T06:14:26.657Z,37.28
2023-04-18T06:15:26.706Z,37.27
2023-04-18T06:16:26.876Z,37.31
2023-04-18T06:17:26.862Z,37.11
2023-04-18T06:18:26.863Z,37.04
2023-04-18T06:19:26.873Z,37.25
2023-04-18T06:20:26.949Z,37.27
2023-04-18T06:21:26.981Z,37.17
2023-04-18T06:22:27.043Z,37.12
2023-04-18T06:23:27.090Z,37.07
2023-04-18T06:24:27.966Z,37.05
2023-04-18T06:25:27.181Z,36.95
2023-04-18T06:26:27.208Z,36.83
2023-04-18T06:27:31.508Z,36.81
2023-04-18T06:28:27.263Z,36.79
2023-04-18T06:29:35.065Z,36.76
2023-04-18T06:30:27.255Z,36.60
2023-04-18T06:31:27.287Z,36.59
2023-04-18T06:32:27.265Z,36.61
2023-04-18T06:33:27.225Z,36.53
2023-04-18T06:34:27.210Z,36.57
2023-04-18T06:35:27.217Z,36.54
2023-04-18T06:36:27.187Z,36.48
2023-04-18T06:37:27.205Z,36.55
2023-04-18T06:38:27.189Z,36.53
2023-04-18T06:39:27.203Z,36.53
2023-04-18T06:40:27.231Z,36.56
2023-04-18T06:41:27.193Z,36.58
2023-04-18T06:42:27.160Z,36.56
2023-04-18T06:43:27.179Z,36.56
2023-04-18T06:44:27.166Z,36.54
2023-04-18T06:45:27.403Z,36.44
2023-04-18T06:46:27.301Z,36.40
2023-04-18T06:47:27.168Z,36.39
2023-04-18T06:48:27.134Z,36.30
2023-04-18T06:49:27.108Z,36.33
2023-04-18T06:50:27.143Z,36.42
2023-04-18T06:51:27.128Z,36.42
2023-04-18T06:52:27.089Z,36.28
2023-04-18T06:53:27.115Z,36.30
2023-04-18T06:54:27.086Z,36.55
2023-04-18T06:55:27.138Z,36.51
2023-04-18T06:56:27.084Z,36.34
2023-04-18T06:57:27.096Z,36.46
2023-04-18T06:58:27.062Z,36.42
2023-04-18T06:59:27.065Z,36.37
2023-04-18T07:00:27.055Z,36.41
2023-04-18T07:01:27.130Z,36.67
2023-04-18T07:02:27.156Z,36.49
2023-04-18T07:03:27.104Z,36.46
2023-04-18T07:04:27.086Z,36.42
2023-04-18T07:05:27.051Z,36.42
2023-04-18T07:06:27.009Z,36.47
2023-04-18T07:07:27.039Z,36.42
2023-04-18T07:08:27.029Z,36.65
2023-04-18T07:09:26.978Z,36.49
2023-04-18T07:10:26.973Z,36.56
2023-04-18T07:11:26.941Z,36.43
2023-04-18T07:12:26.956Z,36.33
2023-04-18T07:13:26.960Z,36.44
2023-04-18T07:14:27.002Z,36.46
2023-04-18T07:15:26.957Z,36.40
2023-04-18T07:16:26.949Z,36.52
2023-04-18T07:17:26.956Z,36.44
2023-04-18T07:18:37.320Z,36.38
2023-04-18T07:19:27.971Z,36.44
2023-04-18T07:20:26.977Z,36.37
2023-04-18T07:21:26.980Z,36.43
2023-04-18T07:22:26.975Z,36.63
2023-04-18T07:23:27.017Z,36.40
2023-04-18T07:24:26.937Z,36.43
2023-04-18T07:25:27.391Z,36.48
2023-04-18T07:26:26.941Z,36.50
2023-04-18T07:27:26.917Z,36.54
2023-04-18T07:28:26.908Z,36.47
2023-04-18T07:29:26.932Z,36.48
2023-04-18T07:30:26.915Z,36.42
2023-04-18T07:31:27.950Z,36.47
2023-04-18T07:32:26.932Z,36.47
2023-04-18T07:33:26.932Z,36.48
2023-04-18T07:34:27.003Z,36.60
2023-04-18T07:35:27.000Z,36.80
2023-04-18T07:36:27.076Z,36.62
2023-04-18T07:37:27.096Z,36.52
2023-04-18T07:38:27.097Z,36.55
2023-04-18T07:39:27.125Z,36.59
2023-04-18T07:40:27.448Z,36.65
2023-04-18T07:41:27.211Z,36.68
2023-04-18T07:42:27.228Z,36.69
2023-04-18T07:43:27.242Z,37.19
2023-04-18T07:44:27.275Z,37.70
2023-04-18T07:45:27.408Z,38.50
2023-04-18T07:46:27.356Z,39.48
2023-04-18T07:47:28.298Z,39.85
2023-04-18T07:48:27.326Z,39.11
2023-04-18T07:49:27.287Z,38.90
2023-04-18T07:50:27.454Z,40.08
2023-04-18T07:51:27.259Z,40.46
2023-04-18T07:52:27.324Z,40.17
2023-04-18T07:53:27.340Z,39.74
2023-04-18T07:54:27.398Z,39.77
2023-04-18T07:55:27.449Z,39.99
2023-04-18T07:56:27.491Z,41.14
2023-04-18T07:57:27.563Z,41.09
2023-04-18T07:58:27.623Z,41.55
2023-04-18T07:59:27.648Z,41.89
2023-04-18T08:00:27.814Z,41.85
2023-04-18T08:01:27.733Z,41.98
2023-04-18T08:02:28.470Z,42.31
2023-04-18T08:03:28.085Z,42.37
2023-04-18T08:04:30.108Z,42.23
2023-04-18T08:05:27.866Z,42.42
2023-04-18T08:06:27.774Z,42.86
2023-04-18T08:07:27.794Z,42.87
2023-04-18T08:08:27.782Z,43.07
2023-04-18T08:09:27.747Z,43.23
2023-04-18T08:10:27.803Z,43.94
2023-04-18T08:11:27.740Z,43.83
2023-04-18T08:12:27.739Z,44.23
2023-04-18T08:13:27.753Z,44.11
2023-04-18T08:14:27.748Z,44.58
2023-04-18T08:15:27.724Z,44.91
2023-04-18T08:16:27.750Z,45.18
2023-04-18T08:17:27.736Z,45.11
2023-04-18T08:18:27.689Z,45.33
2023-04-18T08:19:28.389Z,44.89
2023-04-18T08:20:27.673Z,45.10
2023-04-18T08:21:27.698Z,44.96
2023-04-18T08:22:27.666Z,45.04
2023-04-18T08:23:27.651Z,45.16
2023-04-18T08:24:27.653Z,44.79
2023-04-18T08:25:27.658Z,45.23
2023-04-18T08:26:27.645Z,45.31
2023-04-18T08:27:27.651Z,45.42
2023-04-18T08:28:27.645Z,45.62
2023-04-18T08:29:27.615Z,45.25
2023-04-18T08:30:27.608Z,45.68
2023-04-18T08:31:27.673Z,45.94
2023-04-18T08:32:27.630Z,45.77
2023-04-18T08:33:27.588Z,45.29
2023-04-18T08:34:27.579Z,45.19
2023-04-18T08:35:27.556Z,45.24
2023-04-18T08:36:27.930Z,45.00
2023-04-18T08:37:27.552Z,44.79
2023-04-18T08:38:28.330Z,43.92
2023-04-18T08:39:27.521Z,44.07
2023-04-18T08:40:27.582Z,43.89
2023-04-18T08:41:27.924Z,43.84
2023-04-18T08:42:27.515Z,43.85
2023-04-18T08:43:27.536Z,43.39
2023-04-18T08:44:27.510Z,43.45
2023-04-18T08:45:27.522Z,43.61
2023-04-18T08:46:27.955Z,43.71
2023-04-18T08:47:27.507Z,43.61
2023-04-18T08:48:27.532Z,43.38
2023-04-18T08:49:27.491Z,43.52
2023-04-18T08:50:27.536Z,43.33
2023-04-18T08:51:27.926Z,43.28
2023-04-18T08:52:27.648Z,42.76
2023-04-18T08:53:27.741Z,42.78
2023-04-18T08:54:27.767Z,42.66
2023-04-18T08:55:27.727Z,42.82
2023-04-18T08:56:27.914Z,42.83
2023-04-18T08:57:27.785Z,42.09
2023-04-18T08:58:27.798Z,42.04
2023-04-18T08:59:27.775Z,41.88
2023-04-18T09:00:27.831Z,41.83
2023-04-18T09:01:27.818Z,41.43
2023-04-18T09:02:27.814Z,41.46
2023-04-18T09:03:28.477Z,41.32
2023-04-18T09:04:27.981Z,41.31
2023-04-18T09:05:27.798Z,41.44
2023-04-18T09:06:28.003Z,41.43
2023-04-18T09:07:27.791Z,41.32
2023-04-18T09:08:27.769Z,41.40
2023-04-18T09:09:27.774Z,41.44
2023-04-18T09:10:27.765Z,41.42
2023-04-18T09:11:27.781Z,41.32
2023-04-18T09:12:27.753Z,41.37
2023-04-18T09:13:27.765Z,41.01
2023-04-18T09:14:27.724Z,41.12
2023-04-18T09:15:27.750Z,40.95
2023-04-18T09:16:28.028Z,41.04
2023-04-18T09:17:27.794Z,41.00
2023-04-18T09:18:27.710Z,41.27
2023-04-18T09:19:27.734Z,41.17
2023-04-18T09:20:27.732Z,41.15
2023-04-18T09:21:27.738Z,41.11
2023-04-18T09:22:27.738Z,41.03
2023-04-18T09:23:27.753Z,41.16
2023-04-18T09:24:27.768Z,40.90
2023-04-18T09:25:27.827Z,40.76
2023-04-18T09:26:27.807Z,41.11
2023-04-18T09:27:27.858Z,41.28
2023-04-18T09:28:27.899Z,41.25
2023-04-18T09:29:27.901Z,41.38
2023-04-18T09:30:27.901Z,41.34
2023-04-18T09:31:28.097Z,41.43
2023-04-18T09:32:28.027Z,41.39
2023-04-18T09:33:28.112Z,41.41
2023-04-18T09:34:28.107Z,41.62
2023-04-18T09:35:28.144Z,41.69
2023-04-18T09:36:28.495Z,41.81
2023-04-18T09:37:28.258Z,41.94
2023-04-18T09:38:28.301Z,41.72
2023-04-18T09:39:28.351Z,41.54
2023-04-18T09:40:28.397Z,41.73
2023-04-18T09:41:28.967Z,41.99
2023-04-18T09:42:29.026Z,41.73
2023-04-18T09:43:28.544Z,42.77
2023-04-18T09:44:28.605Z,42.49
2023-04-18T09:45:28.645Z,42.85
2023-04-18T09:46:28.996Z,41.86
2023-04-18T09:47:28.738Z,39.97
2023-04-18T09:48:28.743Z,42.64
2023-04-18T09:49:28.786Z,42.79
2023-04-18T09:50:28.846Z,43.44
2023-04-18T09:51:28.945Z,43.06
2023-04-18T09:52:28.979Z,43.30
2023-04-18T09:53:29.049Z,43.61
2023-04-18T09:54:29.046Z,44.54
2023-04-18T09:55:29.096Z,45.06
2023-04-18T09:56:29.102Z,43.90
2023-04-18T09:57:29.154Z,44.18
2023-04-18T09:58:29.176Z,44.29
2023-04-18T09:59:29.168Z,44.43
2023-04-18T10:00:29.186Z,44.87
2023-04-18T10:01:29.199Z,45.00
2023-04-18T10:02:29.289Z,45.03
2023-04-18T10:03:29.248Z,45.12
2023-04-18T10:04:29.256Z,45.50
2023-04-18T10:05:29.201Z,45.49
2023-04-18T10:06:29.186Z,45.55
2023-04-18T10:07:29.121Z,45.58
2023-04-18T10:08:29.162Z,45.78
2023-04-18T10:09:29.175Z,45.92
2023-04-18T10:10:29.166Z,45.60
2023-04-18T10:11:29.229Z,45.62
2023-04-18T10:12:29.140Z,45.58
2023-04-18T10:13:29.190Z,45.46
2023-04-18T10:14:29.175Z,45.50
2023-04-18T10:15:29.212Z,45.40
2023-04-18T10:16:29.306Z,45.51
2023-04-18T10:17:29.797Z,45.49
2023-04-18T10:18:29.283Z,45.61
2023-04-18T10:19:29.300Z,45.84
2023-04-18T10:20:29.293Z,45.80
2023-04-18T10:21:29.370Z,45.80
2023-04-18T10:22:29.371Z,45.91
2023-04-18T10:23:29.359Z,45.82
2023-04-18T10:24:29.388Z,45.94
2023-04-18T10:25:29.428Z,46.22
2023-04-18T10:26:29.599Z,45.66
2023-04-18T10:27:29.514Z,46.12
2023-04-18T10:28:29.601Z,46.04
2023-04-18T10:29:29.636Z,46.10
2023-04-18T10:30:29.688Z,45.65
2023-04-18T10:31:29.915Z,45.43
2023-04-18T10:32:29.842Z,45.11
2023-04-18T10:33:32.131Z,45.00
2023-04-18T10:34:30.094Z,44.85
2023-04-18T10:35:30.128Z,44.62
2023-04-18T10:36:30.508Z,43.95
2023-04-18T10:37:30.201Z,44.90
2023-04-18T10:38:30.278Z,44.37
2023-04-18T10:39:30.289Z,42.30
2023-04-18T10:40:30.290Z,43.31
2023-04-18T10:41:30.282Z,43.41
2023-04-18T10:42:30.333Z,43.51
2023-04-18T10:43:30.295Z,41.78
2023-04-18T10:44:30.334Z,43.34
2023-04-18T10:45:30.384Z,43.59
2023-04-18T10:46:32.260Z,43.45
2023-04-18T10:47:30.447Z,43.79
2023-04-18T10:48:30.418Z,43.71
2023-04-18T10:49:32.601Z,43.71
2023-04-18T10:50:30.498Z,43.72
2023-04-18T10:51:30.546Z,43.77
2023-04-18T10:52:30.614Z,44.14
2023-04-18T10:53:30.652Z,44.15
2023-04-18T10:54:30.678Z,44.22
2023-04-18T10:55:30.703Z,44.18
2023-04-18T10:56:30.731Z,43.96
2023-04-18T10:57:30.757Z,43.69
2023-04-18T10:58:30.742Z,43.48
2023-04-18T10:59:30.838Z,43.46
2023-04-18T11:00:30.859Z,43.39
2023-04-18T11:01:32.738Z,43.24
2023-04-18T11:02:30.912Z,43.18
2023-04-18T11:03:30.961Z,43.17
2023-04-18T11:04:30.970Z,43.06
2023-04-18T11:05:30.840Z,42.85
2023-04-18T11:06:30.834Z,42.83
2023-04-18T11:07:30.824Z,42.65
2023-04-18T11:08:30.850Z,40.31
2023-04-18T11:09:30.818Z,39.84
2023-04-18T11:10:30.854Z,39.67
2023-04-18T11:11:30.873Z,39.82
2023-04-18T11:12:30.861Z,39.92
2023-04-18T11:13:30.898Z,39.81
2023-04-18T11:14:30.908Z,39.85
2023-04-18T11:15:31.249Z,39.84
2023-04-18T11:16:31.056Z,39.73
2023-04-18T11:17:30.967Z,39.78
2023-04-18T11:18:30.936Z,39.70
2023-04-18T11:19:30.969Z,39.70
2023-04-18T11:20:30.981Z,39.27
2023-04-18T11:21:30.973Z,38.51
2023-04-18T11:22:30.981Z,38.92
2023-04-18T11:23:31.027Z,39.81
2023-04-18T11:24:31.077Z,39.57
2023-04-18T11:25:31.043Z,39.47
2023-04-18T11:26:31.045Z,39.87
2023-04-18T11:27:31.469Z,40.26
2023-04-18T11:28:31.080Z,40.35
2023-04-18T11:29:31.088Z,40.29
2023-04-18T11:30:31.214Z,40.38
2023-04-18T11:31:31.171Z,40.36
2023-04-18T11:32:31.564Z,39.81
2023-04-18T11:33:31.160Z,39.75
2023-04-18T11:34:31.159Z,40.57
2023-04-18T11:35:31.997Z,40.89
2023-04-18T11:36:31.229Z,40.03
2023-04-18T11:37:31.465Z,40.37
2023-04-18T11:38:31.294Z,40.49
2023-04-18T11:39:31.228Z,40.06
2023-04-18T11:40:31.255Z,40.92
2023-04-18T11:41:31.285Z,41.55
2023-04-18T11:42:31.312Z,42.03
2023-04-18T11:43:31.329Z,42.33
2023-04-18T11:44:31.930Z,42.97
2023-04-18T11:45:31.343Z,41.83
2023-04-18T11:46:31.427Z,42.54
2023-04-18T11:47:31.408Z,42.60
2023-04-18T11:48:31.417Z,42.54
2023-04-18T11:49:31.431Z,42.38
2023-04-18T11:50:31.459Z,43.04
2023-04-18T11:51:31.436Z,43.23
2023-04-18T11:52:31.445Z,43.21
2023-04-18T11:53:31.467Z,42.62
2023-04-18T11:54:31.446Z,42.21
2023-04-18T11:55:31.474Z,42.57
2023-04-18T11:56:31.459Z,42.82
2023-04-18T11:57:31.472Z,43.29
2023-04-18T11:58:31.441Z,43.05
2023-04-18T11:59:31.415Z,43.08
2023-04-18T12:00:31.476Z,43.27
2023-04-18T12:01:31.418Z,43.12
2023-04-18T12:02:31.543Z,43.10
2023-04-18T12:03:31.645Z,42.95
2023-04-18T12:04:31.612Z,42.72
2023-04-18T12:05:31.855Z,42.88
2023-04-18T12:06:31.544Z,42.68
2023-04-18T12:07:31.458Z,42.47
2023-04-18T12:08:31.463Z,42.48
2023-04-18T12:09:31.455Z,42.39
2023-04-18T12:10:31.465Z,42.36
2023-04-18T12:11:31.518Z,42.34
2023-04-18T12:12:31.590Z,42.18
2023-04-18T12:13:31.541Z,42.86
2023-04-18T12:14:31.580Z,42.76
2023-04-18T12:15:31.611Z,42.89
2023-04-18T12:16:31.731Z,43.04
2023-04-18T12:17:31.759Z,43.03
2023-04-18T12:18:31.733Z,43.22
2023-04-18T12:19:31.719Z,42.84
2023-04-18T12:20:31.740Z,42.69
2023-04-18T12:21:31.773Z,42.48
2023-04-18T12:22:31.791Z,42.33
2023-04-18T12:23:31.779Z,41.90
2023-04-18T12:24:31.764Z,41.78
2023-04-18T12:25:31.798Z,41.57
2023-04-18T12:26:31.828Z,38.65
2023-04-18T12:27:31.810Z,40.14
2023-04-18T12:28:31.814Z,41.44
2023-04-18T12:29:31.805Z,41.82
2023-04-18T12:30:31.813Z,41.14
2023-04-18T12:31:31.855Z,40.87
2023-04-18T12:32:31.853Z,41.25
2023-04-18T12:33:31.863Z,41.57
2023-04-18T12:34:31.820Z,41.57
2023-04-18T12:35:31.807Z,41.37
2023-04-18T12:36:31.784Z,41.26
2023-04-18T12:37:31.795Z,40.71
2023-04-18T12:38:31.803Z,40.47
2023-04-18T12:39:31.799Z,40.55
2023-04-18T12:40:31.800Z,39.86
2023-04-18T12:41:31.809Z,39.88
2023-04-18T12:42:31.770Z,40.15
2023-04-18T12:43:31.772Z,40.86
2023-04-18T12:44:31.783Z,41.09
2023-04-18T12:45:31.804Z,41.38
2023-04-18T12:46:31.829Z,41.26
2023-04-18T12:47:31.794Z,41.10
2023-04-18T12:48:31.813Z,41.20
2023-04-18T12:49:31.801Z,41.07
2023-04-18T12:50:31.803Z,40.95
2023-04-18T12:51:31.797Z,40.82
2023-04-18T12:52:31.791Z,40.24
2023-04-18T12:53:31.757Z,40.30